Time;durP1;ratioP1;P1;durP2;ratioP2;P2;SDS_P1;SDS_P2;PMS_P1;PMS_P2;Temp;Humidity;BMP_temperature;BMP_pressure;BME280_temperature;BME280_humidity;BME280_pressure;Samples;Min_cycle;Max_cycle;Signal;HPM_P1;HPM_P2
2022/05/25 00:01:42;;;;;;;1.15;0.60;;;;;;;20.06;57.64;100823.94;25658698;23;20039;-65
2022/05/25 00:11:43;;;;;;;0.60;0.60;;;;;;;20.04;57.51;100825.94;25684926;23;20027;-66
2022/05/25 00:21:45;;;;;;;1.50;0.80;;;;;;;20.02;57.21;100833.34;25682178;23;20013;-65
2022/05/25 00:31:47;;;;;;;0.52;0.50;;;;;;;19.99;57.33;100839.91;25680810;23;20027;-65
2022/05/25 00:41:49;;;;;;;0.50;0.50;;;;;;;19.98;57.05;100838.19;25681851;23;20027;-65
2022/05/25 00:51:56;;;;;;;0.68;0.68;;;;;;;19.98;56.95;100837.38;25680397;23;20395;-65
2022/05/25 01:01:58;;;;;;;0.55;0.55;;;;;;;19.95;56.80;100829.56;25654118;23;20025;-65
2022/05/25 01:12:15;;;;;;;1.02;0.80;;;;;;;19.92;56.83;100840.66;25681701;23;20025;-65
2022/05/25 01:22:37;;;;;;;1.25;0.82;;;;;;;19.90;56.97;100840.81;25680176;23;20023;-65
2022/05/25 01:32:54;;;;;;;0.68;0.65;;;;;;;19.90;56.69;100850.75;25688364;23;20025;-65
2022/05/25 01:43:02;;;;;;;0.55;0.50;;;;;;;19.89;56.37;100859.84;25687817;23;20028;-65
2022/05/25 01:53:07;;;;;;;0.88;0.80;;;;;;;19.86;56.46;100861.81;25661594;23;20047;-65
2022/05/25 02:13:49;;;;;;;1.90;1.40;;;;;;;19.85;56.34;100870.94;25640833;23;20047;-65
2022/05/25 02:23:52;;;;;;;2.25;0.90;;;;;;;19.84;56.29;100863.00;25660904;23;20344;-65
2022/05/25 02:33:57;;;;;;;1.23;0.77;;;;;;;19.83;56.17;100867.53;25659325;23;20017;-65
2022/05/25 02:44:00;;;;;;;1.00;0.90;;;;;;;19.90;57.39;100862.41;25646858;23;20071;-65
2022/05/25 02:54:04;;;;;;;1.08;1.02;;;;;;;19.87;58.29;100862.69;25653202;23;20452;-65
2022/05/25 03:04:05;;;;;;;1.10;1.00;;;;;;;19.81;58.77;100880.34;25684653;23;20051;-65
2022/05/25 03:14:07;;;;;;;1.65;1.08;;;;;;;19.59;58.71;100868.06;25682638;23;20027;-65
2022/05/25 03:24:08;;;;;;;1.80;1.33;;;;;;;19.74;58.53;100900.84;25686725;23;20021;-65
2022/05/25 03:34:10;;;;;;;1.92;1.13;;;;;;;19.71;58.33;100903.84;25684841;23;20533;-65
2022/05/25 03:44:12;;;;;;;1.63;1.30;;;;;;;19.68;58.29;100907.72;25683206;23;20036;-65
2022/05/25 03:54:13;;;;;;;1.50;1.40;;;;;;;19.67;58.29;100922.22;25657980;23;20013;-64
2022/05/25 04:04:15;;;;;;;1.70;1.35;;;;;;;19.65;57.75;100920.66;25684729;23;20017;-65
2022/05/25 04:14:16;;;;;;;1.42;1.10;;;;;;;19.62;57.40;100926.34;25685366;23;20024;-65
2022/05/25 04:24:18;;;;;;;1.20;1.10;;;;;;;19.60;57.15;100922.94;25685034;23;20020;-65
2022/05/25 04:34:19;;;;;;;2.35;1.23;;;;;;;19.58;57.75;100922.25;25680787;23;20844;-65
2022/05/25 04:44:21;;;;;;;1.58;1.20;;;;;;;19.56;57.39;100925.06;25654495;23;20927;-65
2022/05/25 04:54:22;;;;;;;1.52;1.30;;;;;;;19.54;57.53;100924.38;25676487;23;20027;-65
2022/05/25 05:04:26;;;;;;;1.45;1.35;;;;;;;19.51;57.59;100917.44;25686688;23;20025;-65
2022/05/25 05:14:28;;;;;;;1.30;1.20;;;;;;;19.54;57.97;100925.25;25691329;23;20016;-65
2022/05/25 05:24:32;;;;;;;1.17;1.08;;;;;;;19.45;58.06;100919.84;25686054;23;20026;-65
2022/05/25 05:34:33;;;;;;;1.43;1.23;;;;;;;19.33;58.41;100905.66;25675964;23;20510;-66
2022/05/25 05:44:42;;;;;;;1.60;1.20;;;;;;;19.56;59.03;100931.34;25676885;23;20460;-66
2022/05/25 05:54:44;;;;;;;2.65;1.15;;;;;;;19.60;59.80;100937.28;25679407;23;20455;-67
2022/05/25 06:04:46;;;;;;;3.65;1.00;;;;;;;19.63;59.93;100947.78;25675843;23;20471;-68
2022/05/25 06:14:47;;;;;;;1.92;1.00;;;;;;;19.66;59.88;100958.31;25675278;23;20012;-68
2022/05/25 06:24:51;;;;;;;1.83;1.20;;;;;;;19.70;60.35;100953.47;25676771;23;20032;-69
2022/05/25 06:34:52;;;;;;;2.25;1.08;;;;;;;19.74;60.45;100954.88;25677067;23;20024;-69
2022/05/25 06:44:54;;;;;;;4.28;1.50;;;;;;;19.80;61.27;100965.09;25678436;23;20020;-69
2022/05/25 06:54:56;;;;;;;2.17;1.15;;;;;;;19.86;61.51;100969.91;25675101;23;20021;-69
2022/05/25 07:04:58;;;;;;;2.72;1.20;;;;;;;19.91;61.52;100974.06;25676666;23;20483;-69
2022/05/25 07:14:59;;;;;;;2.35;1.10;;;;;;;19.95;61.60;100976.31;25674873;23;20403;-68
2022/05/25 07:25:01;;;;;;;2.33;1.38;;;;;;;20.03;61.96;100985.50;25671833;23;20023;-68
2022/05/25 07:35:04;;;;;;;1.60;0.90;;;;;;;20.16;61.53;100987.88;25676588;23;20055;-70
2022/05/25 07:45:06;;;;;;;3.25;0.90;;;;;;;20.56;60.73;100992.09;25648004;23;20458;-68
2022/05/25 07:55:09;;;;;;;1.58;0.95;;;;;;;20.69;60.23;101003.38;25667206;23;20016;-68
2022/05/25 08:15:33;;;;;;;1.48;0.90;;;;;;;22.80;53.66;101008.06;25647897;23;20375;-68
2022/05/25 08:25:35;;;;;;;2.40;0.70;;;;;;;24.40;48.98;101014.88;25670477;23;20020;-69
2022/05/25 08:35:37;;;;;;;2.30;1.00;;;;;;;24.34;48.30;101012.88;25670439;23;20066;-69
2022/05/25 08:45:42;;;;;;;1.25;0.80;;;;;;;23.26;50.43;100990.47;25671772;23;20020;-71
2022/05/25 08:56:15;;;;;;;1.75;0.70;;;;;;;22.67;52.01;100996.81;25620552;23;20023;-68
2022/05/25 09:06:31;;;;;;;0.55;0.47;;;;;;;22.30;52.98;100997.00;25677439;23;20017;-70
2022/05/25 09:16:35;;;;;;;0.57;0.50;;;;;;;21.99;53.59;100973.16;25645613;23;20070;-69
2022/05/25 09:26:37;;;;;;;1.17;0.50;;;;;;;22.06;54.07;101016.72;25665419;23;20021;-67
2022/05/25 09:36:52;;;;;;;2.58;0.80;;;;;;;21.91;54.33;101012.91;25667199;23;20020;-68
2022/05/25 09:46:54;;;;;;;;;;;;;;;21.78;54.60;101019.63;25645870;23;20475;-68
2022/05/25 09:57:06;;;;;;;1.88;0.70;;;;;;;21.71;54.88;101011.28;25675114;23;19919;-69
2022/05/25 10:07:26;;;;;;;1.30;0.55;;;;;;;21.65;55.01;101014.63;25668791;23;20023;-68
2022/05/25 10:17:36;;;;;;;1.77;0.60;;;;;;;21.64;55.03;101012.06;25673353;23;20024;-67
2022/05/25 10:27:40;;;;;;;2.10;0.60;;;;;;;21.60;55.17;101003.38;25637168;23;20013;-68
2022/05/25 10:37:42;;;;;;;3.10;0.57;;;;;;;21.57;55.19;101007.25;25660321;23;20463;-67
2022/05/25 10:47:50;;;;;;;1.25;0.60;;;;;;;21.51;55.14;101007.88;25629172;23;20031;-69
2022/05/25 10:58:16;;;;;;;1.80;0.47;;;;;;;21.44;55.40;100977.03;25655624;23;20531;-65
2022/05/25 11:08:42;;;;;;;0.60;0.60;;;;;;;21.48;55.47;101001.94;25668137;23;20035;-67
2022/05/25 11:19:15;;;;;;;2.88;0.85;;;;;;;21.48;55.71;100993.81;25641151;23;20103;-68
2022/05/25 11:29:31;;;;;;;2.13;0.60;;;;;;;21.50;55.68;100994.50;25657168;23;20020;-68
2022/05/25 11:39:49;;;;;;;1.02;0.70;;;;;;;21.48;55.40;100978.41;25664705;23;20028;-68
2022/05/25 11:49:57;;;;;;;1.50;0.60;;;;;;;21.45;55.08;100970.59;25659740;23;20013;-68
2022/05/25 12:00:27;;;;;;;1.63;0.70;;;;;;;21.41;55.34;100991.72;25664715;23;20029;-67
2022/05/25 12:10:35;;;;;;;11.70;3.45;;;;;;;21.38;56.59;101018.28;25661381;23;20029;-68
2022/05/25 12:21:01;;;;;;;3.00;1.40;;;;;;;21.33;57.34;101028.72;25659702;23;20452;-68
2022/05/25 12:31:08;;;;;;;3.88;1.60;;;;;;;21.16;58.60;100985.25;25634399;23;20017;-67
2022/05/25 12:41:35;;;;;;;3.38;1.42;;;;;;;21.38;59.45;101008.28;25657226;23;20035;-65
2022/05/25 12:51:43;;;;;;;3.80;1.20;;;;;;;21.41;60.42;101001.72;25658446;23;20028;-66
2022/05/25 13:02:21;;;;;;;5.60;1.48;;;;;;;21.41;61.78;101007.13;25664798;23;20059;-68
2022/05/25 13:12:42;;;;;;;2.55;1.00;;;;;;;21.33;62.67;101010.59;25659179;23;20017;-69
2022/05/25 13:22:44;;;;;;;2.75;0.90;;;;;;;21.33;62.46;100998.94;25671087;23;20083;-70
2022/05/25 13:33:04;;;;;;;4.10;0.95;;;;;;;21.34;62.71;100993.34;25676701;23;20012;-69
2022/05/25 13:43:10;;;;;;;2.28;0.70;;;;;;;21.38;61.84;100985.78;25647608;23;20090;-69
2022/05/25 13:53:28;;;;;;;1.67;0.60;;;;;;;21.39;61.63;100999.16;25625914;23;20070;-69
2022/05/25 14:03:34;;;;;;;2.22;0.80;;;;;;;21.19;60.44;100944.31;25670266;23;20021;-69
2022/05/25 14:13:40;;;;;;;1.55;0.40;;;;;;;21.42;59.78;100984.44;25672432;23;20099;-70
2022/05/25 14:23:43;;;;;;;1.60;0.50;;;;;;;21.41;59.19;100986.28;25673437;23;20398;-69
2022/05/25 14:33:45;;;;;;;2.50;0.70;;;;;;;21.45;58.58;100992.25;25642138;23;20028;-70
2022/05/25 14:43:47;;;;;;;1.55;0.52;;;;;;;21.46;58.14;100996.66;25641622;23;20020;-69
2022/05/25 14:53:48;;;;;;;0.82;0.40;;;;;;;21.44;57.49;100990.56;25666471;23;20025;-68
2022/05/25 15:03:51;;;;;;;0.75;0.40;;;;;;;21.44;57.45;100996.84;25654707;23;20054;-74
2022/05/25 15:24:30;;;;;;;14.20;5.22;;;;;;;21.51;59.72;100996.22;25651902;23;20020;-68
2022/05/25 15:34:31;;;;;;;6.68;3.33;;;;;;;21.56;59.18;100997.41;25626546;23;20024;-73
2022/05/25 15:44:37;;;;;;;3.90;2.00;;;;;;;21.56;59.05;100994.69;25651903;23;20020;-71
2022/05/25 15:54:43;;;;;;;5.07;3.40;;;;;;;21.54;60.46;101012.97;25667710;23;20017;-69
2022/05/25 16:04:45;;;;;;;5.18;2.05;;;;;;;21.53;60.63;101032.94;25659738;23;20029;-69
2022/05/25 16:14:51;;;;;;;3.42;1.60;;;;;;;21.48;61.30;101021.72;25657748;23;20027;-70
2022/05/25 16:24:54;;;;;;;1.92;1.10;;;;;;;21.42;61.90;101025.06;25665549;23;20021;-71
2022/05/25 16:34:55;;;;;;;3.28;1.40;;;;;;;21.37;62.84;101022.00;25631332;23;20032;-75
2022/05/25 16:44:57;;;;;;;1.83;0.98;;;;;;;21.37;61.76;101022.81;25661260;23;20028;-72
2022/05/25 16:54:58;;;;;;;6.05;1.00;;;;;;;21.37;61.22;101022.00;25675388;23;20028;-70
2022/05/25 17:05:02;;;;;;;2.55;0.95;;;;;;;21.34;61.28;101022.31;25683922;23;20406;-65
2022/05/25 17:15:05;;;;;;;1.43;0.60;;;;;;;21.30;61.43;101049.69;25681236;23;20092;-65
2022/05/25 17:25:07;;;;;;;2.05;0.93;;;;;;;21.26;60.92;101021.22;25656649;23;20028;-66
2022/05/25 17:35:09;;;;;;;1.48;0.80;;;;;;;21.24;60.80;101023.25;25660378;23;20028;-65
2022/05/25 17:45:11;;;;;;;1.83;0.80;;;;;;;21.23;60.60;101036.94;25682594;23;20459;-65
2022/05/25 17:55:13;;;;;;;3.15;1.17;;;;;;;21.17;60.22;101041.09;25678135;23;20036;-65
2022/05/25 18:05:15;;;;;;;1.90;0.75;;;;;;;21.17;59.64;101070.03;25678772;23;20021;-64
2022/05/25 18:15:28;;;;;;;1.10;0.60;;;;;;;20.94;59.73;101056.94;25673877;23;20021;-64
2022/05/25 18:25:30;;;;;;;1.67;0.60;;;;;;;21.09;59.71;101089.75;25649780;23;20024;-64
2022/05/25 18:35:33;;;;;;;2.17;0.47;;;;;;;21.04;60.49;101086.66;25676415;23;20059;-65
2022/05/25 18:45:35;;;;;;;2.33;0.60;;;;;;;20.99;60.84;101082.56;25674810;23;20063;-64
2022/05/25 18:55:36;;;;;;;1.88;0.65;;;;;;;20.94;61.22;101087.56;25674357;23;20060;-64
2022/05/25 19:05:38;;;;;;;2.72;0.70;;;;;;;20.91;61.46;101079.75;25674738;23;20024;-64
2022/05/25 19:15:39;;;;;;;2.42;0.68;;;;;;;20.88;62.18;101080.06;25647546;23;20221;-63
2022/05/25 19:25:44;;;;;;;1.10;0.70;;;;;;;20.86;62.53;101087.47;25674218;23;20463;-64
2022/05/25 19:35:47;;;;;;;1.83;0.70;;;;;;;20.84;63.32;101089.50;25684959;23;20071;-63
2022/05/25 19:45:52;;;;;;;2.83;0.88;;;;;;;20.80;64.48;101097.03;25685723;23;20016;-63
2022/05/25 19:55:54;;;;;;;1.67;0.73;;;;;;;20.58;65.38;101079.34;25683420;23;20091;-63
2022/05/25 20:05:56;;;;;;;2.30;0.73;;;;;;;20.75;65.42;101126.38;25683770;23;20047;-63
2022/05/25 20:15:58;;;;;;;1.98;0.60;;;;;;;20.65;65.54;101121.00;25633594;23;20538;-63
2022/05/25 20:26:00;;;;;;;3.13;0.70;;;;;;;20.70;65.88;101126.81;25685448;23;20021;-63
2022/05/25 20:36:03;;;;;;;1.73;0.63;;;;;;;20.67;65.85;101135.22;25683476;23;20467;-63
2022/05/25 20:46:06;;;;;;;1.88;0.60;;;;;;;20.66;66.31;101132.69;25682924;23;20082;-63
2022/05/25 20:56:10;;;;;;;1.35;0.77;;;;;;;20.63;66.55;101128.41;25685096;23;20487;-63
2022/05/25 21:06:13;;;;;;;2.35;0.75;;;;;;;20.62;66.23;101123.19;25681590;23;20025;-63
2022/05/25 21:16:14;;;;;;;3.83;1.52;;;;;;;20.60;66.43;101125.19;25683086;23;20020;-63
2022/05/25 21:26:16;;;;;;;2.47;1.27;;;;;;;20.58;70.84;101126.19;25683546;23;20021;-63
2022/05/25 21:36:19;;;;;;;4.18;1.50;;;;;;;20.57;72.44;101135.28;25683406;23;20051;-63
2022/05/25 21:56:41;;;;;;;3.25;1.10;;;;;;;20.54;71.71;101134.72;25690439;23;20016;-63
2022/05/25 22:06:43;;;;;;;1.52;1.00;;;;;;;20.46;70.66;101116.53;25690391;23;20027;-63
2022/05/25 22:16:44;;;;;;;2.38;0.93;;;;;;;20.50;70.07;101125.22;25689900;23;20340;-63
2022/05/25 22:26:46;;;;;;;2.55;0.98;;;;;;;20.48;69.75;101129.91;25687794;23;20027;-63
2022/05/25 22:36:47;;;;;;;2.17;0.88;;;;;;;20.46;69.52;101140.03;25688577;23;20023;-63
2022/05/25 22:46:49;;;;;;;2.17;1.20;;;;;;;20.43;69.45;101139.31;25688338;23;20020;-63
2022/05/25 22:56:50;;;;;;;2.20;1.00;;;;;;;20.40;69.31;101139.63;25687821;23;20099;-63
2022/05/25 23:06:52;;;;;;;2.25;0.93;;;;;;;20.40;69.08;101145.03;25661365;23;20020;-63
2022/05/25 23:16:54;;;;;;;2.20;1.00;;;;;;;20.19;68.77;101128.13;25661059;23;20075;-63
2022/05/25 23:26:55;;;;;;;1.45;0.85;;;;;;;20.37;68.41;101153.44;25685721;23;20035;-63
2022/05/25 23:36:58;;;;;;;1.83;1.00;;;;;;;20.34;68.58;101151.03;25687214;23;20035;-63
2022/05/25 23:47:00;;;;;;;2.22;0.90;;;;;;;20.33;68.65;101152.03;25686923;23;20027;-63
2022/05/25 23:57:02;;;;;;;1.42;0.65;;;;;;;20.32;68.45;101147.59;25685522;23;20028;-63
